Time;durP1;ratioP1;P1;durP2;ratioP2;P2;SDS_P1;SDS_P2;PMS_P1;PMS_P2;Temp;Humidity;BMP_temperature;BMP_pressure;BME280_temperature;BME280_humidity;BME280_pressure;Samples;Min_cycle;Max_cycle;Signal;HPM_P1;HPM_P2
2023/10/05 00:04:44;;;;;;;6.88;2.13;;;;;;;11.40;64.58;100825.69;10477490;28;20053;-59
2023/10/05 00:09:46;;;;;;;5.93;2.10;;;;;;;11.45;64.49;100831.53;10476034;28;20404;-59
2023/10/05 00:20:14;;;;;;;7.03;2.40;;;;;;;11.51;64.39;100819.00;10474651;28;20056;-59
2023/10/05 00:25:17;;;;;;;6.15;2.38;;;;;;;11.50;64.71;100811.22;10468381;28;20049;-60
2023/10/05 00:30:20;;;;;;;9.57;2.33;;;;;;;11.44;64.84;100809.72;10478355;28;20036;-59
2023/10/05 00:35:26;;;;;;;11.82;2.60;;;;;;;11.39;64.98;100803.03;10468088;28;20048;-59
2023/10/05 00:45:38;;;;;;;6.80;2.50;;;;;;;11.40;64.82;100802.13;10468874;28;20139;-59
2023/10/05 00:50:40;;;;;;;5.13;2.28;;;;;;;11.41;64.71;100790.69;10476139;28;20036;-59
2023/10/05 00:55:45;;;;;;;5.07;2.00;;;;;;;11.32;65.24;100794.63;10468684;28;20049;-59
2023/10/05 01:00:50;;;;;;;5.45;1.98;;;;;;;11.28;65.16;100793.91;10461884;28;20576;-59
2023/10/05 01:06:10;;;;;;;6.93;2.58;;;;;;;11.29;65.15;100792.97;10462232;28;20102;-60
2023/10/05 01:11:14;;;;;;;7.15;2.83;;;;;;;11.39;64.99;100789.94;10461194;28;20048;-59
2023/10/05 01:16:19;;;;;;;6.85;2.13;;;;;;;11.41;65.02;100788.09;10466575;28;20099;-59
2023/10/05 01:21:25;;;;;;;6.70;2.15;;;;;;;11.41;65.19;100785.47;10468885;28;20040;-60
2023/10/05 01:26:27;;;;;;;6.43;2.42;;;;;;;11.46;64.92;100792.16;10465944;28;20103;-60
2023/10/05 01:31:29;;;;;;;4.13;2.03;;;;;;;11.60;64.51;100794.09;10471560;28;20151;-59
2023/10/05 01:36:31;;;;;;;6.22;2.22;;;;;;;11.60;64.60;100786.25;10474386;28;20488;-59
2023/10/05 01:41:33;;;;;;;7.45;2.33;;;;;;;11.67;64.49;100790.25;10448416;28;20751;-59
2023/10/05 01:46:36;;;;;;;6.30;2.30;;;;;;;11.69;64.29;100783.16;10437910;28;20071;-60
2023/10/05 01:51:58;;;;;;;6.18;1.95;;;;;;;11.67;64.41;100779.75;10471096;28;20443;-59
2023/10/05 01:57:12;;;;;;;6.22;2.28;;;;;;;11.65;64.35;100779.84;10445645;28;20048;-59
2023/10/05 02:02:15;;;;;;;5.13;2.03;;;;;;;11.67;64.32;100780.63;10449955;28;20281;-59
2023/10/05 02:07:19;;;;;;;6.00;2.38;;;;;;;11.64;64.57;100782.56;10473144;28;20528;-59
2023/10/05 02:12:21;;;;;;;5.07;1.70;;;;;;;11.63;64.63;100783.47;10452867;28;20526;-60
2023/10/05 02:17:23;;;;;;;7.32;2.85;;;;;;;11.70;64.47;100792.72;10480873;28;20055;-59
2023/10/05 02:22:26;;;;;;;7.47;2.28;;;;;;;11.73;64.53;100801.25;10486713;28;20137;-59
2023/10/05 02:27:29;;;;;;;7.25;2.83;;;;;;;11.72;64.36;100803.97;10482214;28;20067;-59
2023/10/05 02:32:33;;;;;;;8.02;2.97;;;;;;;11.71;64.43;100791.78;10474041;28;20131;-59
2023/10/05 02:37:36;;;;;;;6.72;1.98;;;;;;;11.70;64.59;100797.97;10486226;28;20049;-59
2023/10/05 02:42:39;;;;;;;5.63;2.03;;;;;;;11.65;64.59;100807.81;10471625;28;20401;-60
2023/10/05 02:47:41;;;;;;;4.47;2.25;;;;;;;11.62;64.85;100802.75;10480334;28;20040;-59
2023/10/05 02:52:43;;;;;;;8.32;2.90;;;;;;;11.66;64.64;100791.19;10471262;28;20040;-59
2023/10/05 02:57:46;;;;;;;5.57;2.13;;;;;;;11.79;64.42;100798.31;10475646;28;20040;-60
2023/10/05 03:02:50;;;;;;;9.13;2.35;;;;;;;11.84;64.32;100798.97;10440615;28;20052;-60
2023/10/05 03:07:53;;;;;;;7.53;2.03;;;;;;;11.82;64.29;100803.44;10468637;28;20076;-59
2023/10/05 03:12:55;;;;;;;5.60;1.85;;;;;;;11.92;64.33;100809.03;10478192;28;20036;-59
2023/10/05 03:17:58;;;;;;;9.95;2.75;;;;;;;11.98;64.15;100803.47;10464351;28;20052;-60
2023/10/05 03:23:03;;;;;;;6.72;2.15;;;;;;;12.03;64.22;100804.06;10457053;28;20063;-59
2023/10/05 03:28:06;;;;;;;6.35;2.25;;;;;;;12.10;64.04;100800.22;10482456;28;20650;-59
2023/10/05 03:33:10;;;;;;;7.63;2.08;;;;;;;12.15;64.00;100787.69;10476909;28;20131;-59
2023/10/05 03:38:19;;;;;;;4.00;1.92;;;;;;;12.20;63.64;100777.81;10477749;28;20044;-59
2023/10/05 03:43:23;;;;;;;4.07;1.75;;;;;;;12.20;63.58;100775.22;10470526;28;20041;-60
2023/10/05 03:48:26;;;;;;;8.18;2.80;;;;;;;12.16;63.56;100778.91;10462798;28;20044;-60
2023/10/05 03:53:29;;;;;;;4.80;2.22;;;;;;;12.05;63.76;100781.25;10451612;28;20094;-60
2023/10/05 03:58:33;;;;;;;6.07;2.13;;;;;;;12.04;63.95;100780.41;10461303;28;20045;-60
2023/10/05 04:03:35;;;;;;;4.72;1.73;;;;;;;12.09;63.79;100785.41;10471397;28;20191;-60
2023/10/05 04:08:38;;;;;;;6.75;2.83;;;;;;;12.12;63.77;100778.25;10490311;28;20676;-60
2023/10/05 04:13:40;;;;;;;9.00;2.25;;;;;;;12.12;63.71;100773.00;10469560;28;20406;-60
2023/10/05 04:18:42;;;;;;;8.40;2.08;;;;;;;12.12;63.86;100757.25;10477542;28;20548;-60
2023/10/05 04:23:58;;;;;;;6.50;2.30;;;;;;;12.22;63.69;100749.75;10481495;28;20059;-60
2023/10/05 04:29:04;;;;;;;8.10;2.20;;;;;;;12.27;63.62;100755.59;10477901;28;20125;-60
2023/10/05 04:34:13;;;;;;;7.63;2.58;;;;;;;12.15;63.77;100751.00;10479082;28;20045;-60
2023/10/05 04:39:25;;;;;;;;;;;;;;;12.03;64.25;100756.88;10475235;28;20044;-60
2023/10/05 04:44:28;;;;;;;5.60;2.20;;;;;;;12.09;63.97;100757.41;10472420;28;19930;-60
2023/10/05 04:49:31;;;;;;;5.68;2.28;;;;;;;12.06;63.91;100759.34;10474617;28;20048;-60
2023/10/05 04:54:38;;;;;;;6.00;2.28;;;;;;;12.09;63.70;100762.66;10476186;28;20044;-60
2023/10/05 04:59:58;;;;;;;5.90;2.30;;;;;;;12.10;63.75;100760.88;10472307;28;20052;-60
2023/10/05 05:05:21;;;;;;;3.83;1.63;;;;;;;12.11;63.82;100767.81;10468717;28;20234;-60
2023/10/05 05:10:22;;;;;;;;;;;;;;;11.99;64.16;100763.22;10469468;28;20140;-60
2023/10/05 05:15:25;;;;;;;9.32;2.08;;;;;;;12.07;63.72;100774.16;10467860;28;19928;-60
2023/10/05 05:20:27;;;;;;;7.53;2.40;;;;;;;12.09;63.48;100783.63;10461697;28;20041;-60
2023/10/05 05:25:29;;;;;;;4.47;2.38;;;;;;;12.15;63.66;100783.31;10446791;28;20151;-60
2023/10/05 05:30:36;;;;;;;6.88;2.00;;;;;;;11.90;64.15;100776.81;10467358;28;20049;-60
2023/10/05 05:35:43;;;;;;;8.40;2.88;;;;;;;11.99;64.04;100769.31;10475073;28;20045;-60
2023/10/05 05:40:45;;;;;;;7.15;2.20;;;;;;;11.98;63.64;100769.41;10466734;28;20313;-60
2023/10/05 05:45:47;;;;;;;6.60;1.92;;;;;;;11.91;63.93;100776.72;10450790;28;20051;-60
2023/10/05 05:50:49;;;;;;;9.40;2.63;;;;;;;11.94;63.92;100779.22;10463961;28;20309;-59
2023/10/05 05:55:53;;;;;;;5.57;2.30;;;;;;;11.98;63.82;100772.03;10464024;28;20041;-60
2023/10/05 06:00:57;;;;;;;8.60;2.55;;;;;;;11.96;63.75;100766.88;10473926;28;20055;-60
2023/10/05 06:06:00;;;;;;;8.43;2.90;;;;;;;12.06;63.53;100767.22;10470594;28;20522;-60
2023/10/05 06:11:08;;;;;;;7.18;2.25;;;;;;;12.18;63.52;100782.31;10471125;28;20080;-62
2023/10/05 06:16:10;;;;;;;3.85;2.05;;;;;;;12.40;63.12;100779.41;10457180;28;20131;-61
2023/10/05 06:21:13;;;;;;;7.40;1.92;;;;;;;12.40;62.81;100790.75;10469645;28;20041;-61
2023/10/05 06:26:14;;;;;;;3.83;1.70;;;;;;;12.46;62.90;100781.69;10472366;28;20048;-61
2023/10/05 06:31:16;;;;;;;7.95;2.00;;;;;;;12.64;62.44;100773.69;10447455;28;20059;-61
2023/10/05 06:36:19;;;;;;;8.20;2.30;;;;;;;12.66;62.45;100776.25;10462004;28;20052;-61
2023/10/05 06:41:27;;;;;;;5.15;2.00;;;;;;;12.79;62.14;100762.34;10465745;28;20493;-61
2023/10/05 06:46:29;;;;;;;5.15;1.80;;;;;;;12.83;61.91;100770.88;10477361;28;20150;-61
2023/10/05 06:51:31;;;;;;;5.50;1.90;;;;;;;12.85;61.81;100783.00;10472095;28;20059;-61
2023/10/05 06:56:33;;;;;;;6.28;2.10;;;;;;;13.08;61.61;100796.63;10465168;28;20722;-62
2023/10/05 07:01:36;;;;;;;4.93;1.70;;;;;;;13.16;61.50;100811.03;10448087;28;20832;-62
2023/10/05 07:06:38;;;;;;;7.43;2.13;;;;;;;13.08;61.50;100815.88;10465540;28;20478;-61
2023/10/05 07:11:40;;;;;;;8.60;2.33;;;;;;;13.17;61.20;100810.06;10443769;28;20042;-62
2023/10/05 07:16:42;;;;;;;6.60;2.03;;;;;;;13.31;61.00;100812.75;10467144;28;20138;-61
2023/10/05 07:21:44;;;;;;;12.15;3.13;;;;;;;13.39;61.11;100822.84;10450099;28;20094;-61
2023/10/05 07:26:46;;;;;;;4.90;1.80;;;;;;;13.50;60.80;100826.59;10467122;28;20131;-61
2023/10/05 07:31:48;;;;;;;5.97;2.28;;;;;;;13.69;60.36;100826.38;10468147;28;20051;-61
2023/10/05 07:36:51;;;;;;;7.05;1.88;;;;;;;13.80;59.96;100820.50;10466575;28;20135;-61
2023/10/05 07:41:53;;;;;;;6.68;1.85;;;;;;;13.85;59.98;100821.91;10467709;28;20064;-62
2023/10/05 07:46:54;;;;;;;10.13;2.05;;;;;;;13.86;59.76;100820.94;10468856;28;20504;-61
2023/10/05 07:51:58;;;;;;;3.88;1.83;;;;;;;13.91;59.66;100813.66;10449272;28;20075;-62
2023/10/05 07:57:03;;;;;;;8.60;2.55;;;;;;;14.19;59.10;100816.31;10467960;28;20404;-61
2023/10/05 08:02:05;;;;;;;7.50;2.67;;;;;;;14.15;59.00;100840.25;10474430;28;20055;-61
2023/10/05 08:07:08;;;;;;;5.30;2.08;;;;;;;14.33;59.07;100845.25;10473802;28;20101;-61
2023/10/05 08:12:11;;;;;;;9.57;2.38;;;;;;;14.25;58.93;100852.78;10474561;28;20048;-61
2023/10/05 08:17:13;;;;;;;4.13;1.60;;;;;;;14.25;59.11;100871.19;10474149;28;20049;-61
2023/10/05 08:22:20;;;;;;;6.63;1.83;;;;;;;14.62;58.69;100861.06;10474040;28;20051;-61
2023/10/05 08:27:22;;;;;;;4.95;1.88;;;;;;;14.67;58.38;100867.78;10473426;28;20072;-61
2023/10/05 08:32:25;;;;;;;6.95;2.15;;;;;;;14.90;58.16;100866.34;10472722;28;20045;-61
2023/10/05 08:37:27;;;;;;;5.57;2.15;;;;;;;15.11;57.81;100870.25;10472209;28;20049;-61
2023/10/05 08:42:30;;;;;;;5.97;2.45;;;;;;;15.19;57.71;100865.31;10473758;28;20052;-62
2023/10/05 08:47:36;;;;;;;8.93;2.45;;;;;;;15.37;57.13;100866.78;10450011;28;20516;-62
2023/10/05 08:52:41;;;;;;;9.68;2.42;;;;;;;15.59;56.71;100864.47;10466335;28;20063;-61
2023/10/05 08:57:43;;;;;;;3.60;1.80;;;;;;;15.97;55.91;100861.94;10452027;28;20841;-62
2023/10/05 09:02:46;;;;;;;5.20;1.77;;;;;;;16.15;55.93;100864.16;10471360;28;20135;-61
2023/10/05 09:07:56;;;;;;;6.30;1.70;;;;;;;16.43;54.72;100867.53;10470240;28;20053;-62
2023/10/05 09:13:07;;;;;;;4.40;1.50;;;;;;;16.46;55.11;100862.94;10454437;28;20045;-61
2023/10/05 09:18:25;;;;;;;6.22;2.08;;;;;;;16.66;54.66;100862.41;10470971;28;20520;-61
2023/10/05 09:23:31;;;;;;;7.03;1.77;;;;;;;17.10;53.35;100864.50;10452647;28;20231;-62
2023/10/05 09:28:44;;;;;;;5.10;1.80;;;;;;;17.20;53.48;100865.53;10485611;28;20106;-61
2023/10/05 09:33:49;;;;;;;5.82;1.30;;;;;;;17.09;53.50;100878.69;10468391;28;20341;-62
2023/10/05 09:38:54;;;;;;;5.57;1.90;;;;;;;16.91;53.28;100887.94;10470456;28;20169;-61
2023/10/05 09:44:05;;;;;;;2.67;1.60;;;;;;;16.87;53.45;100892.56;10458636;28;20143;-61
2023/10/05 09:49:09;;;;;;;4.45;1.75;;;;;;;16.99;52.75;100893.53;10469433;28;20045;-61
2023/10/05 09:54:13;;;;;;;3.80;1.42;;;;;;;17.03;52.74;100903.78;10468436;28;20043;-61
2023/10/05 09:59:16;;;;;;;4.47;1.80;;;;;;;17.00;53.19;100909.25;10467766;28;20226;-61
2023/10/05 10:04:36;;;;;;;4.43;1.95;;;;;;;17.20;52.63;100902.53;10459822;28;20059;-61
2023/10/05 10:09:40;;;;;;;6.07;1.80;;;;;;;17.23;52.42;100904.97;10465152;28;20143;-62
2023/10/05 10:14:50;;;;;;;4.32;1.42;;;;;;;17.26;51.92;100894.16;10464696;28;20055;-61
2023/10/05 10:20:07;;;;;;;3.38;1.30;;;;;;;17.30;52.14;100900.09;10478429;28;20951;-62
2023/10/05 10:25:41;;;;;;;2.67;1.30;;;;;;;17.38;51.36;100898.63;10463869;28;20047;-61
2023/10/05 10:30:48;;;;;;;5.05;1.40;;;;;;;17.43;51.57;100901.75;10460501;28;20058;-61
2023/10/05 10:35:50;;;;;;;6.78;2.08;;;;;;;17.52;51.95;100909.03;10462722;28;20397;-62
2023/10/05 10:41:07;;;;;;;7.05;2.05;;;;;;;17.51;51.15;100911.78;10459668;28;20045;-61
2023/10/05 10:46:20;;;;;;;3.58;1.67;;;;;;;17.44;51.02;100918.47;10462100;28;20048;-61
2023/10/05 10:51:27;;;;;;;5.20;1.60;;;;;;;17.32;51.73;100912.25;10446620;28;20048;-62
2023/10/05 10:56:42;;;;;;;5.55;1.60;;;;;;;17.35;51.63;100909.41;10443118;28;20058;-62
2023/10/05 11:01:44;;;;;;;4.05;1.67;;;;;;;17.04;52.13;100907.22;10463635;28;20408;-62
2023/10/05 11:06:48;;;;;;;3.42;1.35;;;;;;;17.12;52.45;100901.44;10441768;28;20126;-62
2023/10/05 11:11:53;;;;;;;5.00;1.63;;;;;;;17.16;52.17;100893.13;10463292;28;20396;-61
2023/10/05 11:16:59;;;;;;;3.90;2.05;;;;;;;17.19;52.09;100894.72;10448548;28;20714;-61
2023/10/05 11:22:04;;;;;;;12.75;2.45;;;;;;;17.28;52.00;100876.38;10463558;28;20051;-62
2023/10/05 11:27:14;;;;;;;2.15;1.48;;;;;;;17.33;51.79;100869.03;10458269;28;20622;-62
2023/10/05 11:32:21;;;;;;;4.93;1.43;;;;;;;17.33;52.07;100853.16;10461736;28;20045;-61
2023/10/05 11:37:58;;;;;;;6.07;1.73;;;;;;;17.27;51.65;100845.63;10450060;28;20064;-61
2023/10/05 11:43:05;;;;;;;3.20;1.73;;;;;;;17.27;52.09;100850.94;10451528;28;20045;-61
2023/10/05 11:48:13;;;;;;;5.65;1.70;;;;;;;17.18;52.22;100856.88;10467034;28;20389;-61
2023/10/05 11:53:20;;;;;;;2.33;1.17;;;;;;;16.98;52.51;100852.19;10471643;28;20144;-62
2023/10/05 11:58:22;;;;;;;4.30;1.70;;;;;;;16.98;52.72;100862.75;10459982;28;20048;-63
2023/10/05 12:03:26;;;;;;;5.43;1.80;;;;;;;17.18;52.58;100869.25;10433403;28;20055;-62
2023/10/05 12:08:31;;;;;;;3.92;1.65;;;;;;;17.25;52.24;100870.50;10459063;28;20056;-62
2023/10/05 12:13:33;;;;;;;3.50;1.20;;;;;;;17.41;52.12;100858.72;10462541;28;20055;-62
2023/10/05 12:18:35;;;;;;;3.60;1.40;;;;;;;17.39;52.31;100846.56;10466216;28;20039;-62
2023/10/05 12:23:37;;;;;;;4.82;1.60;;;;;;;17.42;52.24;100839.28;10449270;28;20358;-62
2023/10/05 12:28:43;;;;;;;3.58;1.60;;;;;;;17.45;51.97;100841.66;10445286;28;20161;-62
2023/10/05 12:33:50;;;;;;;4.93;1.13;;;;;;;17.50;52.05;100844.84;10457855;28;20052;-61
2023/10/05 12:38:52;;;;;;;4.40;1.70;;;;;;;17.60;51.80;100852.94;10460049;28;20134;-62
2023/10/05 12:43:55;;;;;;;5.55;1.50;;;;;;;17.75;51.47;100849.97;10464660;28;20059;-62
2023/10/05 12:49:00;;;;;;;2.83;1.20;;;;;;;17.83;51.54;100842.28;10464478;28;20400;-62
2023/10/05 12:54:08;;;;;;;4.13;1.52;;;;;;;17.92;51.15;100859.28;10443281;28;20113;-62
2023/10/05 12:59:10;;;;;;;3.80;1.60;;;;;;;17.81;51.58;100849.50;10467421;28;20076;-62
2023/10/05 13:04:13;;;;;;;5.07;1.50;;;;;;;17.73;51.30;100841.31;10454787;28;20052;-62
2023/10/05 13:09:19;;;;;;;3.72;1.55;;;;;;;17.82;51.44;100835.34;10462362;28;20059;-61
2023/10/05 13:14:21;;;;;;;6.93;1.70;;;;;;;17.89;50.88;100848.94;10461447;28;20410;-61
2023/10/05 13:19:24;;;;;;;5.90;2.00;;;;;;;17.89;51.03;100861.31;10437914;28;20048;-62
2023/10/05 13:24:26;;;;;;;4.30;1.40;;;;;;;17.88;51.01;100849.03;10463414;28;20421;-62
2023/10/05 13:29:28;;;;;;;4.40;1.63;;;;;;;17.80;51.05;100847.84;10460983;28;20150;-62
2023/10/05 13:34:33;;;;;;;3.92;1.50;;;;;;;17.65;51.05;100850.75;10459026;28;20048;-62
2023/10/05 13:39:35;;;;;;;3.38;1.35;;;;;;;17.64;51.53;100843.81;10450400;28;20058;-62
2023/10/05 13:44:39;;;;;;;4.18;1.80;;;;;;;17.53;51.39;100851.69;10462524;28;20061;-61
2023/10/05 13:49:51;;;;;;;4.45;1.85;;;;;;;17.33;51.48;100847.88;10450399;28;20056;-62
2023/10/05 13:54:53;;;;;;;4.72;1.50;;;;;;;17.24;52.04;100852.97;10435568;28;20048;-62
2023/10/05 13:59:55;;;;;;;4.55;1.60;;;;;;;17.48;51.48;100844.09;10430790;28;20040;-62
2023/10/05 14:04:58;;;;;;;4.85;1.70;;;;;;;17.76;51.42;100846.38;10468877;28;20518;-61
2023/10/05 14:10:05;;;;;;;4.28;2.00;;;;;;;17.62;51.40;100853.66;10424856;28;20048;-61
2023/10/05 14:15:09;;;;;;;4.80;1.88;;;;;;;17.48;51.64;100849.41;10442166;28;20040;-62
2023/10/05 14:20:13;;;;;;;5.75;1.55;;;;;;;17.34;51.91;100862.78;10447033;28;20127;-62
2023/10/05 14:25:18;;;;;;;5.95;1.40;;;;;;;17.28;51.72;100860.53;10445121;28;20048;-62
2023/10/05 14:30:23;;;;;;;4.72;1.52;;;;;;;17.43;51.40;100861.25;10458801;28;20508;-62
2023/10/05 14:35:27;;;;;;;4.20;1.48;;;;;;;17.46;51.36;100858.38;10464722;28;20040;-62
2023/10/05 14:40:30;;;;;;;5.22;1.80;;;;;;;17.44;51.70;100855.88;10440023;28;20416;-61
2023/10/05 14:45:35;;;;;;;8.45;1.50;;;;;;;17.45;51.38;100841.66;10464937;28;20090;-62
2023/10/05 14:50:43;;;;;;;4.00;1.63;;;;;;;17.46;51.56;100851.31;10458394;28;20059;-62
2023/10/05 14:55:45;;;;;;;3.05;1.27;;;;;;;17.59;51.33;100836.19;10454254;28;20125;-61
2023/10/05 15:00:49;;;;;;;4.32;1.52;;;;;;;17.43;51.22;100834.81;10455922;28;20040;-61
2023/10/05 15:05:52;;;;;;;4.25;1.58;;;;;;;17.42;51.47;100841.06;10460788;28;20079;-62
2023/10/05 15:10:54;;;;;;;4.60;2.22;;;;;;;17.27;51.42;100848.28;10462408;28;20117;-62
2023/10/05 15:15:56;;;;;;;6.10;1.30;;;;;;;17.22;51.62;100849.59;10475840;28;20178;-62
2023/10/05 15:20:58;;;;;;;3.42;1.20;;;;;;;17.19;51.43;100848.00;10472446;28;20400;-62
2023/10/05 15:26:01;;;;;;;3.10;1.35;;;;;;;17.36;51.81;100842.38;10475343;28;20096;-61
2023/10/05 15:31:06;;;;;;;5.97;1.45;;;;;;;17.35;51.57;100834.53;10465713;28;20070;-62
2023/10/05 15:36:11;;;;;;;3.50;1.38;;;;;;;17.22;51.71;100850.41;10454876;28;20253;-62
2023/10/05 15:41:22;;;;;;;2.38;1.25;;;;;;;17.10;52.21;100853.13;10452630;22;20057;-89
2023/10/05 15:46:25;;;;;;;3.67;1.30;;;;;;;16.99;52.40;100843.31;10382977;28;20049;-89
2023/10/05 15:51:31;;;;;;;3.17;1.40;;;;;;;17.01;52.61;100844.91;10396836;28;20079;-88
2023/10/05 15:56:34;;;;;;;2.55;1.30;;;;;;;17.04;52.83;100851.72;10421420;28;20058;-88
2023/10/05 16:01:38;;;;;;;5.50;1.60;;;;;;;17.08;53.14;100840.00;10422634;28;20048;-87
2023/10/05 16:06:47;;;;;;;3.72;1.70;;;;;;;17.05;52.85;100842.88;10388879;28;20055;-89
2023/10/05 16:11:50;;;;;;;5.35;1.35;;;;;;;16.81;52.95;100849.91;10396252;28;20532;-89
2023/10/05 16:16:55;;;;;;;4.28;1.83;;;;;;;16.74;53.14;100848.63;10406496;28;20647;-89
2023/10/05 16:21:58;;;;;;;3.58;1.60;;;;;;;16.68;53.36;100849.94;10426973;28;20091;-88
2023/10/05 16:27:03;;;;;;;5.07;1.60;;;;;;;16.58;53.58;100855.97;10412242;28;20064;-88
2023/10/05 16:39:12;;;;;;;3.25;1.55;;;;;;;16.22;54.26;100862.78;10428191;28;20088;-90
2023/10/05 16:44:44;;;;;;;4.22;1.90;;;;;;;15.87;54.78;100877.53;10450852;28;20114;-89
2023/10/05 16:49:46;;;;;;;4.75;1.33;;;;;;;15.67;54.96;100874.53;10448132;28;20037;-89
2023/10/05 16:54:54;;;;;;;3.85;1.40;;;;;;;15.56;55.61;100869.09;10435410;28;20055;-89
2023/10/05 16:59:56;;;;;;;4.93;1.55;;;;;;;15.40;55.47;100869.22;10435089;28;20076;-89
2023/10/05 17:05:06;;;;;;;7.47;2.08;;;;;;;15.16;56.27;100884.81;10455887;28;20052;-89
2023/10/05 17:10:09;;;;;;;5.32;1.98;;;;;;;14.91;56.82;100891.72;10444400;28;20037;-90
2023/10/05 17:15:11;;;;;;;5.28;1.58;;;;;;;14.76;57.28;100895.34;10466229;28;20796;-89
2023/10/05 17:20:13;;;;;;;3.95;1.80;;;;;;;14.61;57.84;100896.25;10438529;28;20053;-90
2023/10/05 17:25:17;;;;;;;4.10;1.77;;;;;;;14.44;58.13;100899.88;10442634;28;20493;-89
2023/10/05 17:30:19;;;;;;;3.65;1.70;;;;;;;14.28;58.67;100899.97;10462771;28;20570;-90
2023/10/05 17:35:22;;;;;;;4.03;1.75;;;;;;;14.13;58.99;100910.53;10474817;28;20156;-89
2023/10/05 17:40:25;;;;;;;5.53;1.80;;;;;;;13.98;59.63;100901.78;10455942;28;20098;-90
2023/10/05 17:45:27;;;;;;;5.45;1.80;;;;;;;13.83;59.90;100904.44;10452983;28;20053;-89
2023/10/05 17:50:29;;;;;;;5.00;1.98;;;;;;;13.73;60.23;100918.13;10457303;28;20037;-89
2023/10/05 17:55:32;;;;;;;8.02;1.92;;;;;;;13.64;60.48;100912.53;10470699;28;20060;-93
2023/10/05 18:00:38;;;;;;;5.30;1.55;;;;;;;13.55;60.87;100905.16;10444787;28;20037;-92
2023/10/05 18:05:40;;;;;;;4.55;1.80;;;;;;;13.45;60.99;100910.09;10481482;28;20037;-93
2023/10/05 18:10:42;;;;;;;7.97;1.63;;;;;;;13.35;61.13;100916.75;10425125;28;20485;-92
2023/10/05 18:15:46;;;;;;;3.20;1.60;;;;;;;13.26;61.59;100919.03;10496269;28;20083;-92
2023/10/05 18:20:49;;;;;;;4.90;1.73;;;;;;;13.19;61.78;100922.97;10483164;28;20143;-92
2023/10/05 18:25:52;;;;;;;2.80;1.65;;;;;;;13.11;61.90;100920.72;10461098;28;20049;-93
2023/10/05 18:30:58;;;;;;;3.40;1.80;;;;;;;13.03;61.95;100935.22;10456723;28;20171;-91
2023/10/05 18:36:04;;;;;;;2.60;1.55;;;;;;;12.94;62.24;100928.69;10435659;28;20053;-92
2023/10/05 18:41:07;;;;;;;3.75;1.80;;;;;;;12.80;62.60;100925.97;10458492;28;20082;-92
2023/10/05 18:46:10;;;;;;;3.47;1.55;;;;;;;12.71;62.84;100918.56;10465428;28;20064;-92
2023/10/05 18:51:12;;;;;;;5.95;1.67;;;;;;;12.60;62.95;100924.34;10443513;28;20078;-92
2023/10/05 18:56:15;;;;;;;4.00;1.50;;;;;;;12.62;63.39;100924.31;10459625;28;20056;-93
2023/10/05 19:01:20;;;;;;;4.43;1.70;;;;;;;12.64;63.24;100933.78;10424911;28;20621;-93
2023/10/05 19:06:23;;;;;;;2.78;1.50;;;;;;;12.64;63.35;100936.41;10452598;28;20087;-94
2023/10/05 19:11:26;;;;;;;4.38;2.08;;;;;;;12.60;63.33;100928.78;10481664;28;20036;-93
2023/10/05 19:16:29;;;;;;;2.88;1.67;;;;;;;12.60;63.48;100926.97;10440406;28;20049;-93
2023/10/05 19:21:31;;;;;;;3.97;1.70;;;;;;;12.60;63.47;100926.97;10424583;28;20429;-93
2023/10/05 19:26:33;;;;;;;4.75;1.52;;;;;;;12.59;63.39;100937.56;10457077;28;20479;-93
2023/10/05 19:31:36;;;;;;;3.75;1.65;;;;;;;12.61;63.46;100948.84;10456999;28;20061;-92
2023/10/05 19:36:38;;;;;;;13.30;2.38;;;;;;;12.67;63.71;100935.41;10440791;28;20080;-94
2023/10/05 19:41:40;;;;;;;2.90;1.85;;;;;;;12.71;63.46;100940.41;10441331;28;20045;-94
2023/10/05 19:46:42;;;;;;;4.35;2.10;;;;;;;12.65;63.50;100943.34;10457254;28;20041;-94
2023/10/05 19:51:45;;;;;;;3.70;1.50;;;;;;;12.60;63.92;100932.22;10423324;28;20044;-92
2023/10/05 19:56:50;;;;;;;3.47;1.80;;;;;;;12.63;63.65;100926.84;10447205;28;20060;-93
2023/10/05 20:01:53;;;;;;;4.65;1.80;;;;;;;12.59;63.47;100932.31;10431823;28;20132;-93
2023/10/05 20:06:56;;;;;;;5.25;2.13;;;;;;;12.43;63.49;100927.03;10433498;28;20041;-93
2023/10/05 20:11:58;;;;;;;5.20;1.67;;;;;;;12.26;63.85;100937.50;10450263;28;20051;-92
2023/10/05 20:17:01;;;;;;;4.32;1.70;;;;;;;12.23;64.03;100944.69;10441952;28;20089;-92
2023/10/05 20:22:03;;;;;;;3.92;1.77;;;;;;;11.99;64.45;100952.81;10471921;28;20040;-93
2023/10/05 20:27:08;;;;;;;3.70;1.70;;;;;;;11.98;64.54;100956.41;10464981;28;20075;-94
2023/10/05 20:32:10;;;;;;;5.38;1.58;;;;;;;11.99;64.34;100957.22;10430461;28;20045;-92
2023/10/05 20:37:12;;;;;;;5.85;1.70;;;;;;;11.95;64.54;100969.63;10500166;28;20059;-93
2023/10/05 20:42:14;;;;;;;4.57;1.50;;;;;;;11.89;64.32;100976.94;10488368;28;20396;-94
2023/10/05 20:47:17;;;;;;;5.00;1.77;;;;;;;11.80;64.59;100972.16;10488166;28;20071;-94
2023/10/05 20:52:19;;;;;;;4.00;1.45;;;;;;;11.77;64.51;100980.16;10489139;28;20523;-94
2023/10/05 20:57:22;;;;;;;2.65;1.48;;;;;;;11.69;64.66;100974.44;10489603;28;20056;-95
2023/10/05 21:02:24;;;;;;;4.25;2.13;;;;;;;11.64;64.73;100979.06;10474361;28;20105;-94
2023/10/05 21:07:26;;;;;;;4.65;2.20;;;;;;;11.39;64.88;100981.13;10488387;28;20074;-93
2023/10/05 21:12:29;;;;;;;7.18;2.30;;;;;;;11.32;65.03;100985.78;10476194;28;20094;-93
2023/10/05 21:17:56;;;;;;;4.03;2.25;;;;;;;11.32;65.92;100977.09;10492964;28;20067;-92
2023/10/05 21:22:58;;;;;;;8.15;1.92;;;;;;;11.29;65.42;100978.91;10460856;28;20052;-93
2023/10/05 21:28:02;;;;;;;3.28;1.73;;;;;;;11.30;65.72;100985.88;10448446;28;20102;-91
2023/10/05 21:33:05;;;;;;;4.07;1.73;;;;;;;11.29;65.77;100981.53;10407522;28;20053;-94
2023/10/05 21:38:08;;;;;;;3.72;1.60;;;;;;;11.28;65.69;100974.63;10474061;28;20048;-93
2023/10/05 21:43:11;;;;;;;5.57;2.00;;;;;;;11.26;65.48;100973.84;10465885;28;20061;-92
2023/10/05 21:48:14;;;;;;;4.55;1.88;;;;;;;11.20;65.47;100968.88;10464763;28;20052;-93
2023/10/05 21:53:17;;;;;;;4.07;2.00;;;;;;;11.18;65.49;100978.56;10467943;28;20053;-93
2023/10/05 21:58:19;;;;;;;5.18;1.83;;;;;;;11.11;65.54;100971.06;10454566;28;20079;-93
2023/10/05 22:03:22;;;;;;;8.63;2.42;;;;;;;11.02;65.53;100971.44;10462936;28;20528;-92
2023/10/05 22:08:24;;;;;;;3.20;2.00;;;;;;;10.98;65.67;100980.34;10437484;28;20048;-93
2023/10/05 22:13:26;;;;;;;10.85;2.47;;;;;;;10.84;65.58;100980.97;10451079;28;20049;-93
2023/10/05 22:18:29;;;;;;;5.85;2.28;;;;;;;10.75;65.84;100983.13;10439399;28;20048;-93
2023/10/05 22:23:31;;;;;;;2.72;1.52;;;;;;;10.69;65.80;100986.00;10468473;28;20055;-91
2023/10/05 22:28:34;;;;;;;5.15;2.53;;;;;;;10.69;65.66;100997.34;10468500;28;20072;-91
2023/10/05 22:33:36;;;;;;;4.47;2.03;;;;;;;10.67;65.49;100999.16;10443518;28;20044;-92
2023/10/05 22:38:38;;;;;;;15.07;1.85;;;;;;;10.58;65.84;100998.72;10429923;28;20497;-92
2023/10/05 22:43:45;;;;;;;3.60;1.52;;;;;;;10.50;65.71;101006.91;10459544;28;20064;-93
2023/10/05 22:48:48;;;;;;;1.77;1.30;;;;;;;10.47;65.76;101009.63;10490227;28;20045;-92
2023/10/05 22:53:50;;;;;;;2.53;1.23;;;;;;;10.43;65.58;100997.59;10456957;28;20083;-92
2023/10/05 22:58:52;;;;;;;2.47;1.35;;;;;;;10.40;65.89;101002.94;10431178;28;20069;-92
2023/10/05 23:03:54;;;;;;;9.68;2.08;;;;;;;10.34;65.97;100992.75;10457727;28;20040;-93
2023/10/05 23:08:57;;;;;;;27.48;2.40;;;;;;;10.03;65.71;100984.50;10442045;28;20409;-93
2023/10/05 23:13:59;;;;;;;40.08;2.28;;;;;;;9.98;66.23;100983.81;10449816;28;20052;-94
2023/10/05 23:19:01;;;;;;;35.70;2.88;;;;;;;9.97;66.42;100985.56;10460803;28;20397;-93
2023/10/05 23:24:03;;;;;;;62.00;4.68;;;;;;;9.99;66.23;100978.53;10443231;28;20076;-93
2023/10/05 23:29:09;;;;;;;5.82;1.80;;;;;;;9.89;66.25;100995.47;10447928;28;20106;-93
2023/10/05 23:34:17;;;;;;;8.27;1.55;;;;;;;9.91;66.67;100998.06;10464813;28;20116;-92
2023/10/05 23:39:22;;;;;;;2.97;1.35;;;;;;;9.88;66.29;100998.16;10467080;28;20048;-92